createdAt,value
2023-11-10T00:00:01.902Z,9.53
2023-11-10T00:02:31.243Z,9.56
2023-11-10T00:04:59.414Z,9.48
2023-11-10T00:07:29.870Z,9.79
2023-11-10T00:09:57.754Z,9.93
2023-11-10T00:12:26.009Z,9.89
2023-11-10T00:14:53.947Z,9.71
2023-11-10T00:17:22.047Z,9.76
2023-11-10T00:19:51.349Z,9.44
2023-11-10T00:22:19.315Z,9.47
2023-11-10T00:24:47.359Z,9.69
2023-11-10T00:27:16.379Z,9.80
2023-11-10T00:29:46.550Z,9.88
2023-11-10T00:32:15.066Z,9.84
2023-11-10T00:34:43.661Z,9.80
2023-11-10T00:37:13.275Z,9.49
2023-11-10T00:39:41.453Z,9.36
2023-11-10T00:42:09.457Z,9.37
2023-11-10T00:44:37.934Z,9.43
2023-11-10T00:47:06.237Z,9.57
2023-11-10T00:49:34.207Z,9.61
2023-11-10T00:52:02.145Z,9.65
2023-11-10T00:54:33.600Z,9.66
2023-11-10T00:57:01.550Z,9.71
2023-11-10T00:59:29.467Z,9.63
2023-11-10T01:01:57.643Z,9.46
2023-11-10T01:04:25.763Z,9.27
2023-11-10T01:06:53.743Z,9.21
2023-11-10T01:09:21.868Z,9.16
2023-11-10T01:11:52.590Z,8.48
2023-11-10T01:14:22.037Z,8.19
2023-11-10T01:16:50.127Z,8.13
2023-11-10T01:19:18.264Z,8.17
2023-11-10T01:21:48.162Z,8.44
2023-11-10T01:24:17.838Z,8.66
2023-11-10T01:26:45.871Z,8.69
2023-11-10T01:29:15.116Z,8.35
2023-11-10T01:31:43.022Z,8.31
2023-11-10T01:34:11.145Z,8.46
2023-11-10T01:36:39.208Z,8.59
2023-11-10T01:39:09.551Z,8.64
2023-11-10T01:41:39.115Z,8.70
2023-11-10T01:44:07.499Z,8.75
2023-11-10T01:46:57.886Z,8.88
2023-11-10T01:49:30.185Z,8.70
2023-11-10T01:51:58.478Z,8.77
2023-11-10T01:54:35.423Z,8.87
2023-11-10T01:57:07.064Z,8.95
2023-11-10T01:59:37.938Z,9.00
2023-11-10T02:02:08.820Z,9.01
2023-11-10T02:04:37.928Z,9.01
2023-11-10T02:07:06.606Z,9.05
2023-11-10T02:09:34.584Z,9.09
2023-11-10T02:12:02.978Z,9.10
2023-11-10T02:14:33.706Z,9.09
2023-11-10T02:17:02.015Z,9.10
2023-11-10T02:19:31.748Z,9.13
2023-11-10T02:21:59.739Z,9.15
2023-11-10T02:24:31.071Z,9.16
2023-11-10T02:27:00.325Z,9.19
2023-11-10T02:29:28.210Z,9.20
2023-11-10T02:31:56.777Z,9.22
2023-11-10T02:34:25.114Z,9.08
2023-11-10T02:36:53.182Z,9.14
2023-11-10T02:39:21.072Z,9.15
2023-11-10T02:41:51.227Z,9.20
2023-11-10T02:44:20.561Z,9.24
2023-11-10T02:46:48.672Z,9.32
2023-11-10T02:49:16.813Z,9.32
2023-11-10T02:51:45.072Z,9.34
2023-11-10T02:54:13.015Z,9.35
2023-11-10T02:56:40.917Z,9.40
2023-11-10T02:59:12.154Z,9.37
2023-11-10T03:01:41.418Z,9.37
2023-11-10T03:04:09.725Z,9.41
2023-11-10T03:06:37.716Z,9.46
2023-11-10T03:09:06.110Z,9.50
2023-11-10T03:11:34.168Z,9.47
2023-11-10T03:17:48.917Z,9.55
2023-11-10T03:20:17.155Z,9.57
2023-11-10T03:22:45.798Z,9.69
2023-11-10T03:25:13.733Z,9.66
2023-11-10T03:27:41.755Z,9.70
2023-11-10T03:30:11.110Z,9.70
2023-11-10T03:32:39.415Z,9.62
2023-11-10T03:35:09.805Z,9.55
2023-11-10T03:37:37.818Z,9.48
2023-11-10T03:40:07.025Z,9.44
2023-11-10T03:42:35.076Z,9.43
2023-11-10T03:45:04.832Z,9.38
2023-11-10T03:47:33.495Z,9.36
2023-11-10T03:50:01.445Z,9.43
2023-11-10T03:52:30.927Z,9.44
2023-11-10T03:54:58.798Z,9.38
2023-11-10T03:57:26.726Z,9.38
2023-11-10T03:59:54.635Z,9.41
2023-11-10T04:02:22.866Z,9.40
2023-11-10T04:04:50.777Z,9.42
2023-11-10T04:07:18.770Z,9.41
2023-11-10T04:09:48.127Z,9.32
2023-11-10T04:12:16.101Z,9.37
2023-11-10T04:14:43.998Z,9.39
2023-11-10T04:17:11.907Z,9.17
2023-11-10T04:19:39.829Z,9.05
2023-11-10T04:22:08.880Z,8.74
2023-11-10T04:24:36.802Z,7.82
2023-11-10T04:27:07.271Z,7.41
2023-11-10T04:29:37.234Z,7.13
2023-11-10T04:32:05.790Z,7.57
2023-11-10T04:34:33.868Z,7.97
2023-11-10T04:37:01.892Z,8.19
2023-11-10T04:39:29.829Z,8.34
2023-11-10T04:41:57.724Z,8.48
2023-11-10T04:44:26.975Z,8.59
2023-11-10T04:46:54.979Z,8.73
2023-11-10T04:49:22.911Z,8.84
2023-11-10T04:51:53.871Z,8.95
2023-11-10T04:54:21.872Z,9.03
2023-11-10T04:56:49.781Z,9.11
2023-11-10T04:59:17.750Z,9.18
2023-11-10T05:01:47.683Z,9.22
2023-11-10T05:04:15.806Z,9.23
2023-11-10T05:06:43.892Z,9.24
2023-11-10T05:09:11.907Z,9.25
2023-11-10T05:11:39.881Z,9.28
2023-11-10T05:14:07.858Z,9.30
2023-11-10T05:16:35.848Z,9.30
2023-11-10T05:19:05.476Z,9.28
2023-11-10T05:21:33.539Z,9.26
2023-11-10T05:24:01.773Z,9.22
2023-11-10T05:26:31.309Z,9.20
2023-11-10T05:28:59.249Z,9.21
2023-11-10T05:31:27.217Z,9.19
2023-11-10T05:33:57.016Z,9.20
2023-11-10T05:36:26.949Z,9.23
2023-11-10T05:38:54.938Z,9.26
2023-11-10T05:41:26.008Z,9.26
2023-11-10T05:43:53.941Z,9.28
2023-11-10T05:46:23.089Z,9.34
2023-11-10T05:48:51.140Z,9.41
2023-11-10T05:51:19.528Z,9.46
2023-11-10T05:53:48.789Z,9.54
2023-11-10T05:56:16.722Z,9.61
2023-11-10T05:58:44.622Z,9.67
2023-11-10T06:01:12.535Z,9.68
2023-11-10T06:03:41.119Z,9.70
2023-11-10T06:06:09.295Z,9.68
2023-11-10T06:08:37.709Z,9.65
2023-11-10T06:11:07.123Z,9.67
2023-11-10T06:13:35.773Z,9.68
2023-11-10T06:16:06.279Z,9.66
2023-11-10T06:18:34.273Z,9.64
2023-11-10T06:21:02.210Z,9.68
2023-11-10T06:23:30.721Z,9.67
2023-11-10T06:26:01.335Z,9.69
2023-11-10T06:28:30.625Z,9.69
2023-11-10T06:30:59.022Z,9.74
2023-11-10T06:33:27.240Z,9.73
2023-11-10T06:35:55.222Z,9.74
2023-11-10T06:38:23.410Z,9.79
2023-11-10T06:40:51.345Z,9.79
2023-11-10T06:43:19.286Z,9.80
2023-11-10T06:45:48.628Z,9.82
2023-11-10T06:48:16.924Z,9.83
2023-11-10T06:50:45.532Z,9.94
2023-11-10T06:53:13.976Z,10.07
2023-11-10T06:55:42.087Z,10.21
2023-11-10T06:58:10.078Z,10.51
2023-11-10T07:00:38.523Z,10.87
2023-11-10T07:03:13.385Z,11.44
2023-11-10T07:05:41.729Z,12.29
2023-11-10T07:08:12.002Z,13.09
2023-11-10T07:10:45.469Z,13.91
2023-11-10T07:13:14.781Z,14.73
2023-11-10T07:15:43.779Z,15.49
2023-11-10T07:18:13.685Z,16.00
2023-11-10T07:20:45.549Z,15.94
2023-11-10T07:23:14.464Z,15.94
2023-11-10T07:25:43.392Z,16.46
2023-11-10T07:28:12.020Z,17.69
2023-11-10T07:30:41.579Z,18.81
2023-11-10T07:33:10.305Z,19.23
2023-11-10T07:35:40.228Z,18.99
2023-11-10T07:38:09.035Z,18.40
2023-11-10T07:40:37.564Z,17.78
2023-11-10T07:43:06.039Z,17.18
2023-11-10T07:45:36.453Z,16.68
2023-11-10T07:48:06.388Z,16.40
2023-11-10T07:50:40.197Z,17.07
2023-11-10T07:53:09.110Z,18.61
2023-11-10T07:55:37.039Z,19.49
2023-11-10T07:58:06.034Z,20.47
2023-11-10T08:00:34.485Z,20.02
2023-11-10T08:03:03.309Z,19.50
2023-11-10T08:05:31.653Z,18.59
2023-11-10T08:08:03.496Z,17.76
2023-11-10T08:10:31.434Z,17.28
2023-11-10T08:12:59.732Z,18.76
2023-11-10T08:15:27.828Z,20.08
2023-11-10T08:17:58.075Z,19.75
2023-11-10T08:20:27.630Z,18.92
2023-11-10T08:22:55.784Z,18.30
2023-11-10T08:25:25.597Z,17.56
2023-11-10T08:27:55.869Z,17.00
2023-11-10T08:30:24.158Z,16.55
2023-11-10T08:32:52.285Z,16.32
2023-11-10T08:35:21.229Z,15.97
2023-11-10T08:37:49.134Z,15.61
2023-11-10T08:40:17.809Z,15.30
2023-11-10T08:42:47.109Z,14.98
2023-11-10T08:45:16.698Z,14.71
2023-11-10T08:47:45.288Z,14.50
2023-11-10T08:50:17.180Z,14.34
2023-11-10T08:52:47.998Z,14.12
2023-11-10T08:55:22.227Z,13.92
2023-11-10T08:57:52.922Z,13.74
2023-11-10T09:00:21.209Z,13.57
2023-11-10T09:02:50.749Z,13.37
2023-11-10T09:05:21.461Z,13.22
2023-11-10T09:07:49.442Z,13.05
2023-11-10T09:10:17.974Z,12.97
2023-11-10T09:12:49.450Z,12.83
2023-11-10T09:15:19.597Z,12.73
2023-11-10T09:17:49.210Z,12.65
2023-11-10T09:20:22.217Z,12.53
2023-11-10T09:22:51.148Z,12.49
2023-11-10T09:25:21.576Z,12.43
2023-11-10T09:27:49.832Z,12.36
2023-11-10T09:30:19.292Z,12.31
2023-11-10T09:32:47.313Z,12.28
2023-11-10T09:35:18.006Z,12.26
2023-11-10T09:37:47.640Z,12.23
2023-11-10T09:40:17.998Z,12.23
2023-11-10T09:42:46.524Z,12.21
2023-11-10T09:45:18.760Z,12.18
2023-11-10T09:47:48.992Z,12.15
2023-11-10T09:50:19.375Z,12.13
2023-11-10T09:52:51.892Z,12.12
2023-11-10T09:55:22.523Z,12.12
2023-11-10T09:57:53.464Z,12.22
2023-11-10T10:00:23.433Z,12.41
2023-11-10T10:02:52.891Z,12.65
2023-11-10T10:05:22.317Z,12.94
2023-11-10T10:07:50.455Z,13.13
2023-11-10T10:10:22.686Z,13.31
2023-11-10T10:12:50.710Z,13.42
2023-11-10T10:15:28.220Z,13.49
2023-11-10T10:18:05.717Z,13.58
2023-11-10T10:20:36.432Z,13.65
2023-11-10T10:23:06.176Z,13.74
2023-11-10T10:25:34.120Z,13.88
2023-11-10T10:28:04.969Z,14.26
2023-11-10T10:30:33.948Z,14.59
2023-11-10T10:33:03.386Z,14.78
2023-11-10T10:35:31.307Z,14.74
2023-11-10T10:38:05.909Z,14.57
2023-11-10T10:40:36.977Z,14.42
2023-11-10T10:43:05.845Z,14.25
2023-11-10T10:45:38.177Z,14.10
2023-11-10T10:48:08.086Z,13.98
2023-11-10T10:50:38.355Z,13.79
2023-11-10T10:53:09.393Z,13.62
2023-11-10T10:55:40.713Z,13.53
2023-11-10T10:58:09.780Z,13.42
2023-11-10T11:00:39.367Z,13.37
2023-11-10T11:03:35.243Z,13.30
2023-11-10T11:06:20.449Z,13.24
2023-11-10T11:09:11.358Z,13.21
2023-11-10T11:12:09.197Z,13.13
2023-11-10T11:14:46.141Z,13.08
2023-11-10T11:17:53.921Z,13.05
2023-11-10T11:20:24.431Z,13.04
2023-11-10T11:22:52.850Z,12.98
2023-11-10T11:25:21.818Z,12.90
2023-11-10T11:27:59.099Z,12.87
2023-11-10T11:30:37.549Z,12.83
2023-11-10T11:33:08.131Z,12.82
2023-11-10T11:35:47.669Z,12.81
2023-11-10T11:38:30.260Z,12.82
2023-11-10T11:40:59.399Z,12.86
2023-11-10T11:43:30.129Z,12.95
2023-11-10T11:45:59.528Z,13.07
2023-11-10T11:48:27.668Z,13.13
2023-11-10T11:50:58.145Z,13.18
2023-11-10T11:53:27.079Z,13.24
2023-11-10T11:55:56.571Z,13.32
2023-11-10T11:58:26.848Z,13.34
2023-11-10T12:00:55.260Z,13.37
2023-11-10T12:03:23.470Z,13.37
2023-11-10T12:05:52.289Z,13.34
2023-11-10T12:08:22.806Z,13.32
2023-11-10T12:10:51.199Z,13.35
2023-11-10T12:13:20.677Z,13.34
2023-11-10T12:15:49.473Z,13.44
2023-11-10T12:18:19.444Z,13.48
2023-11-10T12:20:47.974Z,13.50
2023-11-10T12:23:15.890Z,13.51
2023-11-10T12:25:46.175Z,13.52
2023-11-10T12:28:14.965Z,13.56
2023-11-10T12:30:43.774Z,13.56
2023-11-10T12:33:12.154Z,13.58
2023-11-10T12:35:41.287Z,13.60
2023-11-10T12:38:09.997Z,13.75
2023-11-10T12:40:39.378Z,13.89
2023-11-10T12:43:09.981Z,13.85
2023-11-10T12:45:38.322Z,13.77
2023-11-10T12:48:14.017Z,13.78
2023-11-10T12:50:42.269Z,13.78
2023-11-10T12:53:11.232Z,13.83
2023-11-10T12:55:39.783Z,13.88
2023-11-10T12:58:10.287Z,13.99
2023-11-10T13:00:39.439Z,14.10
2023-11-10T13:03:07.563Z,14.16
2023-11-10T13:05:38.971Z,14.19
2023-11-10T13:08:06.970Z,14.18
2023-11-10T13:10:35.036Z,14.21
2023-11-10T13:13:03.271Z,14.19
2023-11-10T13:15:33.547Z,14.15
2023-11-10T13:18:02.640Z,14.20
2023-11-10T13:20:36.068Z,14.19
2023-11-10T13:23:04.660Z,14.16
2023-11-10T13:25:32.576Z,14.17
2023-11-10T13:28:00.880Z,14.17
2023-11-10T13:30:31.383Z,14.16
2023-11-10T13:33:00.767Z,14.15
2023-11-10T13:35:28.858Z,14.21
2023-11-10T13:37:57.968Z,14.30
2023-11-10T13:40:26.001Z,14.36
2023-11-10T13:42:53.952Z,14.34
2023-11-10T13:45:22.195Z,14.35
2023-11-10T13:47:52.666Z,14.44
2023-11-10T13:50:22.064Z,14.70
2023-11-10T13:52:52.722Z,14.85
2023-11-10T13:55:20.707Z,14.97
2023-11-10T13:57:48.956Z,15.07
2023-11-10T14:00:18.551Z,15.02
2023-11-10T14:02:46.564Z,14.96
2023-11-10T14:05:15.497Z,14.94
2023-11-10T14:07:46.155Z,14.91
2023-11-10T14:10:14.345Z,14.85
2023-11-10T14:12:44.474Z,14.80
2023-11-10T14:15:15.735Z,14.66
2023-11-10T14:17:48.432Z,14.61
2023-11-10T14:20:16.544Z,14.53
2023-11-10T14:22:46.108Z,14.54
2023-11-10T14:25:14.091Z,14.52
2023-11-10T14:27:42.108Z,14.63
2023-11-10T14:30:15.889Z,14.72
2023-11-10T14:32:44.540Z,14.85
2023-11-10T14:35:12.684Z,14.99
2023-11-10T14:37:42.696Z,15.05
2023-11-10T14:40:19.202Z,15.05
2023-11-10T14:42:50.069Z,15.09
2023-11-10T14:45:22.618Z,15.15
2023-11-10T14:47:52.438Z,15.15
2023-11-10T14:50:35.697Z,15.11
2023-11-10T14:53:07.715Z,15.02
2023-11-10T14:55:37.096Z,14.97
2023-11-10T14:58:05.240Z,14.82
2023-11-10T15:00:34.438Z,14.47
2023-11-10T15:03:05.718Z,14.10
2023-11-10T15:05:35.634Z,13.85
2023-11-10T15:08:05.424Z,13.63
2023-11-10T15:10:38.745Z,13.48
2023-11-10T15:13:10.377Z,13.35
2023-11-10T15:15:39.326Z,13.22
2023-11-10T15:18:10.410Z,13.10
2023-11-10T15:20:38.919Z,12.99
2023-11-10T15:23:07.113Z,12.88
2023-11-10T15:25:35.114Z,12.81
2023-11-10T15:28:03.160Z,12.74
2023-11-10T15:30:34.871Z,12.70
2023-11-10T15:33:05.073Z,12.65
2023-11-10T15:35:33.569Z,12.58
2023-11-10T15:38:01.607Z,12.52
2023-11-10T15:40:30.104Z,12.46
2023-11-10T15:42:58.689Z,12.40
2023-11-10T15:45:26.609Z,12.29
2023-11-10T15:47:55.976Z,12.24
2023-11-10T15:50:24.167Z,12.21
2023-11-10T15:52:55.511Z,12.17
2023-11-10T15:55:23.445Z,12.15
2023-11-10T15:57:53.415Z,12.10
2023-11-10T16:00:22.217Z,12.03
2023-11-10T16:02:51.441Z,12.01
2023-11-10T16:05:21.291Z,11.95
2023-11-10T16:07:49.669Z,11.87
2023-11-10T16:10:17.856Z,11.85
2023-11-10T16:12:46.245Z,11.84
2023-11-10T16:15:14.396Z,11.82
2023-11-10T16:17:42.313Z,11.77
2023-11-10T16:20:13.288Z,11.74
2023-11-10T16:22:43.985Z,11.71
2023-11-10T16:25:12.214Z,11.70
2023-11-10T16:27:41.501Z,11.70
2023-11-10T16:30:10.909Z,11.68
2023-11-10T16:32:40.136Z,11.67
2023-11-10T16:35:08.489Z,11.60
2023-11-10T16:37:39.157Z,11.59
2023-11-10T16:40:11.481Z,11.57
2023-11-10T16:42:39.666Z,11.54
2023-11-10T16:45:09.228Z,11.53
2023-11-10T16:47:37.289Z,11.48
2023-11-10T16:50:05.818Z,11.46
2023-11-10T16:52:33.770Z,11.46
2023-11-10T16:55:01.818Z,11.45
2023-11-10T16:57:36.593Z,11.43
2023-11-10T17:00:08.230Z,11.40
2023-11-10T17:02:44.646Z,11.37
2023-11-10T17:05:16.065Z,11.37
2023-11-10T17:07:44.080Z,11.36
2023-11-10T17:10:12.157Z,11.36
2023-11-10T17:12:42.716Z,11.33
2023-11-10T17:15:12.084Z,11.31
2023-11-10T17:17:42.708Z,11.26
2023-11-10T17:20:13.149Z,11.23
2023-11-10T17:22:41.197Z,11.20
2023-11-10T17:25:09.849Z,11.18
2023-11-10T17:27:38.439Z,11.16
2023-11-10T17:30:09.154Z,11.15
2023-11-10T17:32:37.464Z,11.14
2023-11-10T17:35:06.133Z,11.12
2023-11-10T17:37:34.181Z,11.10
2023-11-10T17:40:06.522Z,11.08
2023-11-10T17:42:35.889Z,11.03
2023-11-10T17:45:04.906Z,10.98
2023-11-10T17:47:34.736Z,10.97
2023-11-10T17:50:06.106Z,10.96
2023-11-10T17:52:34.019Z,10.89
2023-11-10T17:55:03.280Z,10.85
2023-11-10T17:57:31.287Z,10.83
2023-11-10T17:59:59.291Z,10.82
2023-11-10T18:02:28.001Z,10.80
2023-11-10T18:05:00.424Z,10.76
2023-11-10T18:07:29.225Z,10.74
2023-11-10T18:09:57.259Z,10.72
2023-11-10T18:12:25.225Z,10.71
2023-11-10T18:14:53.373Z,10.63
2023-11-10T18:17:22.105Z,10.57
2023-11-10T18:19:50.134Z,10.55
2023-11-10T18:22:20.027Z,10.55
2023-11-10T18:24:51.505Z,10.50
2023-11-10T18:27:22.520Z,10.49
2023-11-10T18:29:50.644Z,10.46
2023-11-10T18:32:18.653Z,10.41
2023-11-10T18:34:46.820Z,10.37
2023-11-10T18:37:15.271Z,10.36
2023-11-10T18:39:46.819Z,10.34
2023-11-10T18:42:15.123Z,10.27
2023-11-10T18:44:43.104Z,10.29
2023-11-10T18:47:11.060Z,10.25
2023-11-10T18:49:41.116Z,10.02
2023-11-10T18:52:09.228Z,9.78
2023-11-10T18:54:37.366Z,9.38
2023-11-10T18:57:07.597Z,9.37
2023-11-10T18:59:38.692Z,9.47
2023-11-10T19:02:06.716Z,9.36
2023-11-10T19:04:34.593Z,9.50
2023-11-10T19:07:02.681Z,9.18
2023-11-10T19:09:30.727Z,9.22
2023-11-10T19:11:59.752Z,9.34
2023-11-10T19:14:30.416Z,9.39
2023-11-10T19:16:58.497Z,9.39
2023-11-10T19:19:26.637Z,9.38
2023-11-10T19:21:54.629Z,9.39
2023-11-10T19:24:22.725Z,9.36
2023-11-10T19:26:50.816Z,9.37
2023-11-10T19:29:18.812Z,9.36
2023-11-10T19:31:49.859Z,9.32
2023-11-10T19:34:17.800Z,9.32
2023-11-10T19:36:46.445Z,9.34
2023-11-10T19:39:16.095Z,9.39
2023-11-10T19:41:44.151Z,9.41
2023-11-10T19:44:14.960Z,9.46
2023-11-10T19:46:43.921Z,9.45
2023-11-10T19:49:13.490Z,9.46
2023-11-10T19:56:52.861Z,9.56
2023-11-10T19:59:23.572Z,9.57
2023-11-10T20:01:53.004Z,9.53
2023-11-10T20:04:22.489Z,9.30
2023-11-10T20:06:51.163Z,8.97
2023-11-10T20:09:19.432Z,8.65
2023-11-10T20:11:47.581Z,8.52
2023-11-10T20:14:15.542Z,8.48
2023-11-10T20:16:44.656Z,8.68
2023-11-10T20:19:12.750Z,8.46
2023-11-10T20:21:42.085Z,8.52
2023-11-10T20:24:10.785Z,8.71
2023-11-10T20:26:38.927Z,8.84
2023-11-10T20:29:07.163Z,8.94
2023-11-10T20:31:35.288Z,9.03
2023-11-10T20:34:04.686Z,9.12
2023-11-10T20:36:32.791Z,9.17
2023-11-10T20:39:03.069Z,9.19
2023-11-10T20:41:32.494Z,9.21
2023-11-10T20:44:00.455Z,9.25
2023-11-10T20:46:31.096Z,9.28
2023-11-10T20:48:59.169Z,9.28
2023-11-10T20:51:27.720Z,9.28
2023-11-10T20:53:55.793Z,9.28
2023-11-10T20:56:26.363Z,9.29
2023-11-10T20:58:54.407Z,9.28
2023-11-10T21:01:23.755Z,9.24
2023-11-10T21:03:51.987Z,9.24
2023-11-10T21:06:21.849Z,9.26
2023-11-10T21:08:50.388Z,9.29
2023-11-10T21:11:19.982Z,9.38
2023-11-10T21:13:54.125Z,9.44
2023-11-10T21:16:23.382Z,9.42
2023-11-10T21:18:51.392Z,9.41
2023-11-10T21:21:20.720Z,9.43
2023-11-10T21:23:48.722Z,9.49
2023-11-10T21:26:20.369Z,9.54
2023-11-10T21:28:52.519Z,9.60
2023-11-10T21:31:20.467Z,9.62
2023-11-10T21:33:48.465Z,9.66
2023-11-10T21:36:16.460Z,9.65
2023-11-10T21:38:44.637Z,9.67
2023-11-10T21:41:12.535Z,9.69
2023-11-10T21:43:40.472Z,9.72
2023-11-10T21:46:09.895Z,9.74
2023-11-10T21:48:37.916Z,9.77
2023-11-10T21:51:07.431Z,9.75
2023-11-10T21:53:35.603Z,9.73
2023-11-10T21:56:03.949Z,9.67
2023-11-10T21:58:32.004Z,9.62
2023-11-10T22:00:59.929Z,9.54
2023-11-10T22:03:29.300Z,9.48
2023-11-10T22:05:57.327Z,9.41
2023-11-10T22:08:26.294Z,9.35
2023-11-10T22:10:54.292Z,9.29
2023-11-10T22:13:22.348Z,9.24
2023-11-10T22:15:50.360Z,9.21
2023-11-10T22:18:18.394Z,9.19
2023-11-10T22:20:47.782Z,9.14
2023-11-10T22:23:15.708Z,9.10
2023-11-10T22:25:43.797Z,9.02
2023-11-10T22:28:11.703Z,8.94
2023-11-10T22:30:39.784Z,8.87
2023-11-10T22:33:08.060Z,8.82
2023-11-10T22:35:38.072Z,8.80
2023-11-10T22:38:08.444Z,8.79
2023-11-10T22:40:37.039Z,8.78
2023-11-10T22:43:05.131Z,8.76
2023-11-10T22:45:33.465Z,8.56
2023-11-10T22:48:01.507Z,8.42
2023-11-10T22:50:31.888Z,8.29
2023-11-10T22:52:59.955Z,8.26
2023-11-10T22:55:32.206Z,8.28
2023-11-10T22:58:00.906Z,8.17
2023-11-10T23:00:34.032Z,7.97
2023-11-10T23:03:05.159Z,7.80
2023-11-10T23:05:33.350Z,7.59
2023-11-10T23:08:01.318Z,7.73
2023-11-10T23:10:32.622Z,7.55
2023-11-10T23:13:02.664Z,7.36
2023-11-10T23:15:30.768Z,7.00
2023-11-10T23:18:00.020Z,7.31
2023-11-10T23:20:34.688Z,7.56
2023-11-10T23:23:05.095Z,7.75
2023-11-10T23:25:38.897Z,7.87
2023-11-10T23:28:07.399Z,7.97
2023-11-10T23:30:37.121Z,7.85
2023-11-10T23:33:07.719Z,7.64
2023-11-10T23:35:39.911Z,7.61
2023-11-10T23:38:12.129Z,7.42
2023-11-10T23:40:41.435Z,7.52
2023-11-10T23:43:09.342Z,7.59
2023-11-10T23:45:37.414Z,7.78
2023-11-10T23:48:07.266Z,7.88
2023-11-10T23:50:38.225Z,7.96
2023-11-10T23:53:08.370Z,7.93
2023-11-10T23:55:36.638Z,7.98
2023-11-10T23:58:07.916Z,8.05
